Lancaster, South Carolina
Current Conditions -  °F | °C
As of 11:35 PM on Tuesday 21 Oct 2014 (Local Time) from KLKR Reporting Station
Scattered Clouds Scattered Clouds  
Wind Chill: 57°   Ceiling: Unl
Heat Index: 57°   Visibility: 10mi
Dew Point: 43°   Wind: 3mph
Humidity: 59%   Direction: 360°N
Pressure: 29.98"   Gusts: NA
Location:  34.72°N, 80.77°W
Report Text: KLKR 220335Z AUTO 36003KT 10SM SCT065 14/06 A2998 RMK AO2
Loading
Personal Weather Stations






























Interactive Weather Map
Tropical Storm Tracking
New forecast layout! Learn more

10-Day Weather Forecast

Advertisements
Track Severe Weather on mobile